Time,TemperatureF,DewpointF,PressureIn,WindDirection,WindDirectionDegrees,WindSpeedMPH,WindSpeedGustMPH,Humidity,HourlyPrecipIn,Conditions,Clouds,dailyrainin,SoftwareType,DateUTC
2013-02-26 00:01:00,13.5,2.5,29.89,NNE,27,0.0,3.0,61,0.00,,,0.33,Wunderground v.1.15,2013-02-26 07:01:00,
2013-02-26 00:11:00,13.1,2.5,29.89,NNE,27,0.0,3.0,62,0.00,,,0.33,Wunderground v.1.15,2013-02-26 07:11:00,
2013-02-26 00:21:00,12.8,2.2,29.87,NNE,27,0.0,3.0,62,0.00,,,0.00,Wunderground v.1.15,2013-02-26 07:21:00,
2013-02-26 00:31:00,12.6,2.7,29.86,NNE,27,0.0,3.0,64,0.00,,,0.00,Wunderground v.1.15,2013-02-26 07:31:00,
2013-02-26 00:41:00,12.6,2.7,29.86,NNE,27,0.0,3.0,64,0.00,,,0.00,Wunderground v.1.15,2013-02-26 07:41:00,
2013-02-26 00:51:00,12.6,3.1,29.85,NNE,27,0.0,3.0,65,0.00,,,0.00,Wunderground v.1.15,2013-02-26 07:51:00,
2013-02-26 00:56:00,12.6,3.1,29.85,NNE,27,0.0,3.0,65,0.00,,,0.00,Wunderground v.1.15,2013-02-26 07:56:00,
2013-02-26 01:11:00,12.8,3.9,29.86,NNE,27,0.0,3.0,67,0.00,,,0.00,Wunderground v.1.15,2013-02-26 08:11:00,
2013-02-26 01:21:00,12.9,4.0,29.86,NNE,27,0.0,3.0,67,0.00,,,0.00,Wunderground v.1.15,2013-02-26 08:21:00,
2013-02-26 01:26:00,12.9,4.3,29.86,NNE,27,0.0,3.0,68,0.00,,,0.00,Wunderground v.1.15,2013-02-26 08:26:00,
2013-02-26 01:36:00,13.3,5.0,29.85,NNE,27,0.0,3.0,69,0.00,,,0.00,Wunderground v.1.15,2013-02-26 08:36:00,
2013-02-26 01:46:00,13.8,5.8,29.85,NNE,27,0.0,3.0,70,0.00,,,0.00,Wunderground v.1.15,2013-02-26 08:46:00,
2013-02-26 01:56:00,14.1,6.1,29.85,NNE,27,0.0,3.0,70,0.00,,,0.00,Wunderground v.1.15,2013-02-26 08:56:00,
2013-02-26 02:11:00,14.3,6.3,29.85,NNE,27,0.0,3.0,70,0.00,,,0.00,Wunderground v.1.15,2013-02-26 09:11:00,
2013-02-26 02:21:00,14.6,6.9,29.84,NNE,27,0.0,3.0,71,0.00,,,0.00,Wunderground v.1.15,2013-02-26 09:21:00,
2013-02-26 02:31:00,15.2,8.1,29.82,NNE,27,0.0,3.0,73,0.00,,,0.00,Wunderground v.1.15,2013-02-26 09:31:00,
2013-02-26 02:41:00,15.7,8.6,29.82,NNE,27,0.0,3.0,73,0.00,,,0.00,Wunderground v.1.15,2013-02-26 09:41:00,
2013-02-26 02:51:00,15.9,8.8,29.82,NNE,27,0.0,3.0,73,0.00,,,0.00,Wunderground v.1.15,2013-02-26 09:51:00,
2013-02-26 03:01:00,16.1,9.0,29.82,NNE,27,0.0,3.0,73,0.00,,,0.00,Wunderground v.1.15,2013-02-26 10:01:00,
2013-02-26 03:07:00,15.9,8.8,29.82,NNE,27,0.0,3.0,73,0.00,,,0.00,Wunderground v.1.15,2013-02-26 10:07:00,
2013-02-26 03:16:00,16.1,9.0,29.83,NNE,27,0.0,3.0,73,0.00,,,0.00,Wunderground v.1.15,2013-02-26 10:16:00,
2013-02-26 03:26:00,16.1,9.0,29.83,NNE,27,0.0,3.0,73,0.00,,,0.00,Wunderground v.1.15,2013-02-26 10:26:00,
2013-02-26 03:31:00,16.1,9.0,29.82,NNE,27,0.0,3.0,73,0.00,,,0.00,Wunderground v.1.15,2013-02-26 10:31:00,
2013-02-26 03:41:00,16.1,9.0,29.82,NNE,27,0.0,3.0,73,0.00,,,0.00,Wunderground v.1.15,2013-02-26 10:41:00,
2013-02-26 03:51:00,16.2,9.4,29.82,NNE,27,0.0,3.0,74,0.00,,,0.00,Wunderground v.1.15,2013-02-26 10:51:00,
2013-02-26 03:56:00,16.4,9.6,29.82,NNE,27,0.0,3.0,74,0.00,,,0.00,Wunderground v.1.15,2013-02-26 10:56:00,
2013-02-26 04:11:00,16.4,9.6,29.82,NNE,27,0.0,3.0,74,0.00,,,0.00,Wunderground v.1.15,2013-02-26 11:11:00,
2013-02-26 04:21:00,16.5,9.7,29.82,NNE,27,0.0,3.0,74,0.00,,,0.00,Wunderground v.1.15,2013-02-26 11:21:00,
2013-02-26 04:26:00,16.7,9.8,29.82,NNE,27,0.0,3.0,74,0.00,,,0.00,Wunderground v.1.15,2013-02-26 11:26:00,
2013-02-26 04:36:00,17.2,10.6,29.82,NNE,27,0.0,3.0,75,0.00,,,0.00,Wunderground v.1.15,2013-02-26 11:36:00,
2013-02-26 04:46:00,17.5,10.9,29.82,NNE,27,0.0,3.0,75,0.00,,,0.00,Wunderground v.1.15,2013-02-26 11:46:00,
2013-02-26 04:51:00,17.7,11.1,29.81,NNE,27,0.0,3.0,75,0.00,,,0.00,Wunderground v.1.15,2013-02-26 11:51:00,
2013-02-26 05:01:00,17.8,11.2,29.81,NNE,27,0.0,3.0,75,0.00,,,0.00,Wunderground v.1.15,2013-02-26 12:01:00,
2013-02-26 05:07:00,18.0,11.4,29.81,NNE,27,0.0,3.0,75,0.00,,,0.00,Wunderground v.1.15,2013-02-26 12:07:00,
2013-02-26 05:16:00,18.1,11.5,29.81,NNE,27,0.0,3.0,75,0.00,,,0.00,Wunderground v.1.15,2013-02-26 12:16:00,
2013-02-26 05:26:00,18.4,11.8,29.81,NNE,27,0.0,3.0,75,0.00,,,0.00,Wunderground v.1.15,2013-02-26 12:26:00,
2013-02-26 05:36:00,18.8,12.2,29.85,NNE,27,0.0,3.0,75,0.00,,,0.00,Wunderground v.1.15,2013-02-26 12:36:00,
2013-02-26 05:46:00,19.1,12.2,29.85,NNE,27,0.0,3.0,74,0.00,,,0.00,Wunderground v.1.15,2013-02-26 12:46:00,
2013-02-26 05:56:00,19.2,12.3,29.86,NNE,27,0.0,3.0,74,0.00,,,0.00,Wunderground v.1.15,2013-02-26 12:56:00,
2013-02-26 06:11:00,19.2,12.3,29.86,NNE,27,0.0,3.0,74,0.00,,,0.00,Wunderground v.1.15,2013-02-26 13:11:00,
2013-02-26 06:21:00,19.4,12.5,29.87,NNE,27,0.0,3.0,74,0.00,,,0.00,Wunderground v.1.15,2013-02-26 13:21:00,
2013-02-26 06:31:00,19.5,12.6,29.88,NNE,27,0.0,3.0,74,0.00,,,0.00,Wunderground v.1.15,2013-02-26 13:31:00,
2013-02-26 06:41:00,19.7,12.8,29.88,NNE,27,0.0,3.0,74,0.00,,,0.00,Wunderground v.1.15,2013-02-26 13:41:00,
2013-02-26 06:51:00,19.9,12.9,29.88,NNE,27,0.0,3.0,74,0.00,,,0.00,Wunderground v.1.15,2013-02-26 13:51:00,
2013-02-26 06:56:00,20.0,13.0,29.88,NNE,27,0.0,3.0,74,0.00,,,0.00,Wunderground v.1.15,2013-02-26 13:56:00,
2013-02-26 07:11:00,20.5,13.8,29.88,NNE,27,0.0,3.0,75,0.00,,,0.00,Wunderground v.1.15,2013-02-26 14:11:00,
2013-02-26 07:21:00,21.1,14.1,29.87,NNE,27,0.0,3.0,74,0.00,,,0.00,Wunderground v.1.15,2013-02-26 14:21:00,
2013-02-26 07:26:00,21.4,14.1,29.87,NNE,27,0.0,3.0,73,0.00,,,0.00,Wunderground v.1.15,2013-02-26 14:26:00,
2013-02-26 07:31:00,21.6,14.0,29.90,NNE,27,0.0,3.0,72,0.00,,,0.00,Wunderground v.1.15,2013-02-26 14:31:00,
2013-02-26 07:41:00,21.8,14.2,29.90,NNE,27,0.0,3.0,72,0.00,,,0.00,Wunderground v.1.15,2013-02-26 14:41:00,
2013-02-26 07:46:00,21.9,13.9,29.90,NNE,25,0.0,3.0,71,0.00,,,0.00,Wunderground v.1.15,2013-02-26 14:46:00,
2013-02-26 07:51:00,22.1,14.1,29.90,NNE,25,0.0,3.0,71,0.00,,,0.00,Wunderground v.1.15,2013-02-26 14:51:00,
2013-02-26 07:56:00,22.2,14.2,29.90,NNE,25,0.0,3.0,71,0.00,,,0.00,Wunderground v.1.15,2013-02-26 14:56:00,
2013-02-26 08:11:00,22.9,14.9,29.91,NNE,25,0.0,3.0,71,0.00,,,0.00,Wunderground v.1.15,2013-02-26 15:11:00,
2013-02-26 08:16:00,23.0,15.0,29.91,NNE,25,0.0,3.0,71,0.00,,,0.00,Wunderground v.1.15,2013-02-26 15:16:00,
2013-02-26 08:26:00,23.8,15.8,29.91,NNE,25,0.0,3.0,71,0.00,,,0.00,Wunderground v.1.15,2013-02-26 15:26:00,
2013-02-26 08:31:00,24.2,16.1,29.93,NNE,25,0.0,3.0,71,0.00,,,0.00,Wunderground v.1.15,2013-02-26 15:31:00,
2013-02-26 08:36:00,24.7,16.3,29.93,NNE,25,0.0,3.0,70,0.00,,,0.00,Wunderground v.1.15,2013-02-26 15:36:00,
2013-02-26 08:46:00,25.7,16.9,29.92,NNE,25,0.0,3.0,69,0.00,,,0.00,Wunderground v.1.15,2013-02-26 15:46:00,
2013-02-26 08:51:00,26.3,16.5,29.92,ENE,71,0.0,3.0,66,0.00,,,0.00,Wunderground v.1.15,2013-02-26 15:51:00,
2013-02-26 09:01:00,26.9,16.0,29.92,NW,326,0.0,3.0,63,0.00,,,0.00,Wunderground v.1.15,2013-02-26 16:01:00,
2013-02-26 09:11:00,27.5,15.0,29.93,West,270,0.0,3.0,59,0.00,,,0.00,Wunderground v.1.15,2013-02-26 16:11:00,
2013-02-26 09:16:00,27.6,14.3,29.92,SW,222,0.0,3.0,57,0.00,,,0.00,Wunderground v.1.15,2013-02-26 16:16:00,
2013-02-26 09:22:00,27.8,14.9,29.92,SW,222,0.0,3.0,58,0.00,,,0.00,Wunderground v.1.15,2013-02-26 16:22:00,
2013-02-26 09:32:00,27.9,15.8,29.94,SSW,208,0.0,3.0,60,0.00,,,0.00,Wunderground v.1.15,2013-02-26 16:32:00,
2013-02-26 09:41:00,27.6,15.1,29.94,SSW,208,0.0,3.0,59,0.00,,,0.00,Wunderground v.1.15,2013-02-26 16:41:00,
2013-02-26 09:51:00,27.2,15.9,29.95,SSW,208,0.0,3.0,62,0.00,,,0.00,Wunderground v.1.15,2013-02-26 16:51:00,
2013-02-26 10:01:00,27.6,16.3,29.93,SSW,208,0.0,3.0,62,0.00,,,0.00,Wunderground v.1.15,2013-02-26 17:01:00,
2013-02-26 10:11:00,27.8,17.2,29.93,SSW,208,0.0,3.0,64,0.00,,,0.00,Wunderground v.1.15,2013-02-26 17:11:00,
2013-02-26 10:16:00,28.2,17.9,29.93,SSW,208,0.0,3.0,65,0.00,,,0.00,Wunderground v.1.15,2013-02-26 17:16:00,
2013-02-26 13:26:00,31.6,22.9,29.93,SSW,208,0.0,3.0,70,0.00,,,0.03,Wunderground v.1.15,2013-02-26 20:26:00,
2013-02-26 13:36:00,31.5,22.5,29.92,SSW,208,0.0,3.0,69,0.00,,,0.03,Wunderground v.1.15,2013-02-26 20:36:00,
2013-02-26 13:42:00,31.5,22.1,29.92,SSW,208,0.0,3.0,68,0.00,,,0.03,Wunderground v.1.15,2013-02-26 20:42:00,
2013-02-26 13:52:00,31.5,21.8,29.92,South,189,0.0,3.0,67,0.00,,,0.03,Wunderground v.1.15,2013-02-26 20:52:00,
2013-02-26 14:01:00,31.9,22.2,29.93,South,189,0.0,3.0,67,0.00,,,0.03,Wunderground v.1.15,2013-02-26 21:01:00,
2013-02-26 14:11:00,31.9,21.5,29.93,WSW,250,0.0,3.0,65,0.00,,,0.03,Wunderground v.1.15,2013-02-26 21:11:00,
2013-02-26 14:16:00,31.8,21.7,29.94,SW,220,0.0,3.0,66,0.00,,,0.03,Wunderground v.1.15,2013-02-26 21:16:00,
2013-02-26 14:22:00,31.6,22.6,29.94,SSE,152,0.0,3.0,69,0.00,,,0.03,Wunderground v.1.15,2013-02-26 21:22:00,
2013-02-26 14:32:00,31.5,23.5,29.94,West,267,0.0,3.0,72,0.00,,,0.03,Wunderground v.1.15,2013-02-26 21:32:00,
2013-02-26 14:42:00,31.2,23.2,29.94,WNW,302,0.0,3.0,72,0.00,,,0.03,Wunderground v.1.15,2013-02-26 21:42:00,
2013-02-26 14:51:00,30.7,23.4,29.96,WNW,295,0.0,3.0,74,0.00,,,0.03,Wunderground v.1.15,2013-02-26 21:51:00,
2013-02-26 15:01:00,30.1,23.1,29.97,SW,227,0.0,3.0,75,0.00,,,0.03,Wunderground v.1.15,2013-02-26 22:01:00,
2013-02-26 15:11:00,29.8,22.8,29.97,SE,141,0.0,3.0,75,0.00,,,0.03,Wunderground v.1.15,2013-02-26 22:11:00,
2013-02-26 15:16:00,29.5,22.6,29.97,SE,143,0.0,3.0,75,0.00,,,0.03,Wunderground v.1.15,2013-02-26 22:16:00,
2013-02-26 15:21:00,29.4,22.8,29.97,SSE,155,0.0,3.0,76,0.00,,,0.03,Wunderground v.1.15,2013-02-26 22:21:00,
2013-02-26 15:31:00,29.3,21.4,29.98,South,179,0.0,3.0,72,0.00,,,0.03,Wunderground v.1.15,2013-02-26 22:31:00,
2013-02-26 15:41:00,29.5,20.9,29.98,South,184,0.0,3.0,70,0.00,,,0.03,Wunderground v.1.15,2013-02-26 22:41:00,
2013-02-26 15:51:00,29.7,20.8,29.99,SW,229,0.0,3.0,69,0.00,,,0.03,Wunderground v.1.15,2013-02-26 22:51:00,
2013-02-26 16:01:00,29.7,21.4,30.00,SSW,208,0.0,3.0,71,0.00,,,0.03,Wunderground v.1.15,2013-02-26 23:01:00,
2013-02-26 16:07:00,29.8,21.9,30.00,SSW,210,0.0,3.0,72,0.00,,,0.03,Wunderground v.1.15,2013-02-26 23:07:00,
2013-02-26 16:16:00,29.5,21.9,30.00,South,178,0.0,3.0,73,0.00,,,0.03,Wunderground v.1.15,2013-02-26 23:16:00,
2013-02-26 16:21:00,29.5,21.9,30.01,South,179,0.0,3.0,73,0.00,,,0.03,Wunderground v.1.15,2013-02-26 23:21:00,
2013-02-26 16:26:00,29.4,21.8,30.01,West,268,0.0,3.0,73,0.00,,,0.03,Wunderground v.1.15,2013-02-26 23:26:00,
2013-02-26 16:36:00,29.1,21.2,30.01,SSW,192,0.0,3.0,72,0.00,,,0.03,Wunderground v.1.15,2013-02-26 23:36:00,
2013-02-26 16:41:00,29.1,20.5,30.01,WNW,299,0.0,3.0,70,0.00,,,0.03,Wunderground v.1.15,2013-02-26 23:41:00,
2013-02-26 16:51:00,29.1,20.2,30.02,SSW,208,0.0,3.0,69,0.00,,,0.03,Wunderground v.1.15,2013-02-26 23:51:00,
2013-02-26 16:56:00,29.3,20.4,30.02,WNW,288,0.0,3.0,69,0.00,,,0.03,Wunderground v.1.15,2013-02-26 23:56:00,
2013-02-26 17:02:00,29.3,20.0,30.03,WNW,299,0.0,3.0,68,0.00,,,0.03,Wunderground v.1.15,2013-02-27 00:02:00,
2013-02-26 17:11:00,29.4,19.8,30.03,SSW,193,0.0,3.0,67,0.00,,,0.03,Wunderground v.1.15,2013-02-27 00:11:00,
2013-02-26 17:16:00,29.4,20.1,30.03,NW,316,0.0,3.0,68,0.00,,,0.03,Wunderground v.1.15,2013-02-27 00:16:00,
2013-02-26 17:21:00,29.4,20.1,30.04,ESE,114,0.0,3.0,68,0.00,,,0.03,Wunderground v.1.15,2013-02-27 00:21:00,
2013-02-26 17:31:00,29.3,20.7,30.03,West,275,0.0,3.0,70,0.00,,,0.03,Wunderground v.1.15,2013-02-27 00:31:00,
2013-02-26 17:41:00,28.8,20.6,30.03,SSE,148,0.0,3.0,71,0.00,,,0.03,Wunderground v.1.15,2013-02-27 00:41:00,
2013-02-26 17:51:00,28.5,20.6,30.05,SW,216,0.0,3.0,72,0.00,,,0.03,Wunderground v.1.15,2013-02-27 00:51:00,
2013-02-26 17:57:00,28.4,20.8,30.05,SW,217,0.0,3.0,73,0.00,,,0.03,Wunderground v.1.15,2013-02-27 00:57:00,
2013-02-26 18:11:00,28.1,21.2,30.07,SSE,168,0.0,3.0,75,0.00,,,0.03,Wunderground v.1.15,2013-02-27 01:11:00,
2013-02-26 18:16:00,27.9,21.0,30.08,South,174,0.0,3.0,75,0.00,,,0.03,Wunderground v.1.15,2013-02-27 01:16:00,
2013-02-26 18:26:00,27.6,21.0,30.08,SW,219,0.0,3.0,76,0.00,,,0.03,Wunderground v.1.15,2013-02-27 01:26:00,
2013-02-26 18:36:00,27.6,21.3,30.07,SW,220,0.0,3.0,77,0.00,,,0.03,Wunderground v.1.15,2013-02-27 01:36:00,
2013-02-26 18:42:00,27.5,21.2,30.07,North,354,0.0,3.0,77,0.00,,,0.03,Wunderground v.1.15,2013-02-27 01:42:00,
2013-02-26 18:51:00,27.5,21.2,30.08,West,261,0.0,3.0,77,0.00,,,0.03,Wunderground v.1.15,2013-02-27 01:51:00,
2013-02-26 19:01:00,27.3,20.7,30.08,North,0,0.0,3.0,76,0.00,,,0.03,Wunderground v.1.15,2013-02-27 02:01:00,
2013-02-26 19:11:00,27.3,20.7,30.09,ENE,78,0.0,3.0,76,0.00,,,0.03,Wunderground v.1.15,2013-02-27 02:11:00,
2013-02-26 19:16:00,27.3,20.7,30.10,SSE,151,0.0,3.0,76,0.00,,,0.03,Wunderground v.1.15,2013-02-27 02:16:00,
2013-02-26 19:27:00,27.3,20.4,30.10,NW,323,0.0,3.0,75,0.00,,,0.03,Wunderground v.1.15,2013-02-27 02:27:00,
2013-02-26 19:36:00,27.2,19.7,30.10,SW,215,0.0,3.0,73,0.00,,,0.03,Wunderground v.1.15,2013-02-27 02:36:00,
2013-02-26 19:46:00,27.2,19.7,30.11,SSW,200,0.0,3.0,73,0.00,,,0.03,Wunderground v.1.15,2013-02-27 02:46:00,
2013-02-26 19:56:00,27.2,19.7,30.11,ESE,107,0.0,3.0,73,0.00,,,0.03,Wunderground v.1.15,2013-02-27 02:56:00,
2013-02-26 20:01:00,27.2,19.7,30.12,WSW,248,0.0,3.0,73,0.00,,,0.03,Wunderground v.1.15,2013-02-27 03:01:00,
2013-02-26 20:07:00,27.2,19.4,30.12,SSW,213,0.0,3.0,72,0.00,,,0.03,Wunderground v.1.15,2013-02-27 03:07:00,
2013-02-26 20:16:00,27.0,19.2,30.12,SW,216,0.0,3.0,72,0.00,,,0.03,Wunderground v.1.15,2013-02-27 03:16:00,
2013-02-26 20:21:00,27.0,19.2,30.13,NW,311,0.0,3.0,72,0.00,,,0.03,Wunderground v.1.15,2013-02-27 03:21:00,
2013-02-26 20:26:00,27.0,19.5,30.13,WSW,244,0.0,3.0,73,0.00,,,0.03,Wunderground v.1.15,2013-02-27 03:26:00,
2013-02-26 20:37:00,26.9,19.4,30.11,WSW,244,0.0,3.0,73,0.00,,,0.03,Wunderground v.1.15,2013-02-27 03:37:00,
2013-02-26 20:46:00,26.9,18.4,30.11,South,169,0.0,3.0,70,0.00,,,0.03,Wunderground v.1.15,2013-02-27 03:46:00,
2013-02-26 20:51:00,26.9,18.4,30.12,South,186,0.0,3.0,70,0.00,,,0.03,Wunderground v.1.15,2013-02-27 03:51:00,
2013-02-26 21:01:00,27.0,18.5,30.13,NW,308,0.0,3.0,70,0.00,,,0.03,Wunderground v.1.15,2013-02-27 04:01:00,
2013-02-26 21:07:00,27.0,18.5,30.13,South,188,0.0,3.0,70,0.00,,,0.03,Wunderground v.1.15,2013-02-27 04:07:00,
2013-02-26 21:16:00,26.9,18.4,30.13,West,281,0.0,3.0,70,0.00,,,0.03,Wunderground v.1.15,2013-02-27 04:16:00,
2013-02-26 21:21:00,26.9,18.7,30.13,SE,130,0.0,3.0,71,0.00,,,0.03,Wunderground v.1.15,2013-02-27 04:21:00,
2013-02-26 21:26:00,26.9,18.7,30.13,SE,127,0.0,3.0,71,0.00,,,0.03,Wunderground v.1.15,2013-02-27 04:26:00,
2013-02-26 21:36:00,26.7,18.6,30.13,West,278,0.0,3.0,71,0.00,,,0.03,Wunderground v.1.15,2013-02-27 04:36:00,
2013-02-26 21:41:00,26.7,18.9,30.13,South,175,0.0,3.0,72,0.00,,,0.03,Wunderground v.1.15,2013-02-27 04:41:00,
2013-02-26 21:51:00,26.6,19.1,30.14,West,275,0.0,3.0,73,0.00,,,0.03,Wunderground v.1.15,2013-02-27 04:51:00,
2013-02-26 21:56:00,26.4,18.9,30.14,WSW,237,0.0,3.0,73,0.00,,,0.03,Wunderground v.1.15,2013-02-27 04:56:00,
2013-02-26 22:01:00,26.3,19.1,30.14,WSW,240,0.0,3.0,74,0.00,,,0.03,Wunderground v.1.15,2013-02-27 05:01:00,
2013-02-26 22:11:00,26.3,19.1,30.15,WSW,241,0.0,3.0,74,0.00,,,0.03,Wunderground v.1.15,2013-02-27 05:11:00,
2013-02-26 22:16:00,26.1,18.9,30.15,WSW,241,0.0,3.0,74,0.00,,,0.03,Wunderground v.1.15,2013-02-27 05:16:00,
2013-02-26 22:21:00,26.1,19.3,30.15,WSW,241,0.0,3.0,75,0.00,,,0.03,Wunderground v.1.15,2013-02-27 05:21:00,
2013-02-26 22:26:00,26.1,19.3,30.15,WSW,241,0.0,3.0,75,0.00,,,0.03,Wunderground v.1.15,2013-02-27 05:26:00,
2013-02-26 22:36:00,26.0,19.2,30.14,WSW,244,0.0,3.0,75,0.00,,,0.03,Wunderground v.1.15,2013-02-27 05:36:00,
2013-02-26 22:46:00,26.0,18.5,30.14,NNW,329,0.0,3.0,73,0.00,,,0.03,Wunderground v.1.15,2013-02-27 05:46:00,
2013-02-26 22:52:00,25.8,18.3,30.14,South,191,0.0,3.0,73,0.00,,,0.03,Wunderground v.1.15,2013-02-27 05:52:00,
2013-02-26 23:01:00,25.8,17.4,30.15,South,185,0.0,3.0,70,0.00,,,0.03,Wunderground v.1.15,2013-02-27 06:01:00,
2013-02-26 23:07:00,26.0,17.2,30.15,South,184,0.0,3.0,69,0.00,,,0.03,Wunderground v.1.15,2013-02-27 06:07:00,
2013-02-26 23:16:00,26.0,16.5,30.15,NNW,329,0.0,3.0,67,0.00,,,0.03,Wunderground v.1.15,2013-02-27 06:16:00,
2013-02-26 23:21:00,26.1,15.9,30.15,WSW,250,0.0,3.0,65,0.00,,,0.03,Wunderground v.1.15,2013-02-27 06:21:00,
2013-02-26 23:31:00,26.3,15.4,30.15,WSW,257,0.0,3.0,63,0.00,,,0.03,Wunderground v.1.15,2013-02-27 06:31:00,
2013-02-26 23:36:00,26.4,15.5,30.17,NNW,344,0.0,3.0,63,0.00,,,0.03,Wunderground v.1.15,2013-02-27 06:36:00,
2013-02-26 23:46:00,26.4,15.5,30.17,SSW,213,0.0,3.0,63,0.00,,,0.03,Wunderground v.1.15,2013-02-27 06:46:00,
2013-02-26 23:56:00,26.4,15.9,30.17,North,0,0.0,3.0,64,0.00,,,0.03,Wunderground v.1.15,2013-02-27 06:56:00,